sensor_id;sensor_type;location;lat;lon;timestamp;P1;durP1;ratioP1;P2;durP2;ratioP2
61085;SDS011;46967;48.876;2.136;2022-11-09T00:02:04;10.10;;;1.98;;
61085;SDS011;46967;48.876;2.136;2022-11-09T00:04:30;12.30;;;1.73;;
61085;SDS011;46967;48.876;2.136;2022-11-09T00:06:55;9.50;;;1.80;;
61085;SDS011;46967;48.876;2.136;2022-11-09T00:09:20;12.57;;;2.20;;
61085;SDS011;46967;48.876;2.136;2022-11-09T00:11:46;9.40;;;1.83;;
61085;SDS011;46967;48.876;2.136;2022-11-09T00:14:12;7.40;;;1.40;;
61085;SDS011;46967;48.876;2.136;2022-11-09T00:16:38;11.10;;;1.75;;
61085;SDS011;46967;48.876;2.136;2022-11-09T00:19:04;16.05;;;2.75;;
61085;SDS011;46967;48.876;2.136;2022-11-09T00:21:29;15.95;;;2.13;;
61085;SDS011;46967;48.876;2.136;2022-11-09T00:23:55;4.95;;;1.80;;
61085;SDS011;46967;48.876;2.136;2022-11-09T00:26:21;11.40;;;2.05;;
61085;SDS011;46967;48.876;2.136;2022-11-09T00:28:46;10.60;;;1.83;;
61085;SDS011;46967;48.876;2.136;2022-11-09T00:31:13;10.98;;;1.77;;
61085;SDS011;46967;48.876;2.136;2022-11-09T00:33:40;12.20;;;1.73;;
61085;SDS011;46967;48.876;2.136;2022-11-09T00:36:06;6.97;;;1.50;;
61085;SDS011;46967;48.876;2.136;2022-11-09T00:38:37;11.90;;;1.88;;
61085;SDS011;46967;48.876;2.136;2022-11-09T00:41:05;10.60;;;1.92;;
61085;SDS011;46967;48.876;2.136;2022-11-09T00:43:31;7.68;;;1.70;;
61085;SDS011;46967;48.876;2.136;2022-11-09T00:45:57;10.00;;;1.95;;
61085;SDS011;46967;48.876;2.136;2022-11-09T00:48:23;10.05;;;1.95;;
61085;SDS011;46967;48.876;2.136;2022-11-09T00:50:49;11.65;;;1.98;;
61085;SDS011;46967;48.876;2.136;2022-11-09T00:53:16;10.68;;;2.00;;
61085;SDS011;46967;48.876;2.136;2022-11-09T00:55:42;8.70;;;2.22;;
61085;SDS011;46967;48.876;2.136;2022-11-09T00:58:08;9.65;;;3.05;;
61085;SDS011;46967;48.876;2.136;2022-11-09T01:00:33;12.57;;;2.00;;
61085;SDS011;46967;48.876;2.136;2022-11-09T01:02:58;8.70;;;1.42;;
61085;SDS011;46967;48.876;2.136;2022-11-09T01:05:23;9.73;;;2.10;;
61085;SDS011;46967;48.876;2.136;2022-11-09T01:07:49;8.73;;;1.88;;
61085;SDS011;46967;48.876;2.136;2022-11-09T01:10:14;7.53;;;1.60;;
61085;SDS011;46967;48.876;2.136;2022-11-09T01:12:40;8.70;;;1.90;;
61085;SDS011;46967;48.876;2.136;2022-11-09T01:15:05;7.25;;;1.75;;
61085;SDS011;46967;48.876;2.136;2022-11-09T01:17:31;9.10;;;1.70;;
61085;SDS011;46967;48.876;2.136;2022-11-09T01:19:56;11.45;;;1.55;;
61085;SDS011;46967;48.876;2.136;2022-11-09T01:22:21;8.52;;;1.85;;
61085;SDS011;46967;48.876;2.136;2022-11-09T01:24:47;8.57;;;2.05;;
61085;SDS011;46967;48.876;2.136;2022-11-09T01:27:12;5.47;;;1.30;;
61085;SDS011;46967;48.876;2.136;2022-11-09T01:29:37;6.30;;;1.63;;
61085;SDS011;46967;48.876;2.136;2022-11-09T01:32:03;5.82;;;1.27;;
61085;SDS011;46967;48.876;2.136;2022-11-09T01:34:29;7.38;;;1.33;;
61085;SDS011;46967;48.876;2.136;2022-11-09T01:36:54;9.25;;;1.67;;
61085;SDS011;46967;48.876;2.136;2022-11-09T01:39:20;6.45;;;1.38;;
61085;SDS011;46967;48.876;2.136;2022-11-09T01:41:45;9.52;;;1.58;;
61085;SDS011;46967;48.876;2.136;2022-11-09T01:44:13;10.10;;;1.80;;
61085;SDS011;46967;48.876;2.136;2022-11-09T01:46:46;9.27;;;1.88;;
61085;SDS011;46967;48.876;2.136;2022-11-09T01:49:42;9.73;;;2.03;;
61085;SDS011;46967;48.876;2.136;2022-11-09T01:52:53;8.13;;;1.50;;
61085;SDS011;46967;48.876;2.136;2022-11-09T01:55:04;13.48;;;1.40;;
61085;SDS011;46967;48.876;2.136;2022-11-09T01:57:35;7.28;;;1.10;;
61085;SDS011;46967;48.876;2.136;2022-11-09T02:00:06;6.40;;;1.48;;
61085;SDS011;46967;48.876;2.136;2022-11-09T02:02:34;7.18;;;1.67;;
61085;SDS011;46967;48.876;2.136;2022-11-09T02:05:04;6.18;;;1.33;;
61085;SDS011;46967;48.876;2.136;2022-11-09T02:07:32;6.38;;;1.73;;
61085;SDS011;46967;48.876;2.136;2022-11-09T02:10:03;10.40;;;1.40;;
61085;SDS011;46967;48.876;2.136;2022-11-09T02:12:34;5.30;;;1.30;;
61085;SDS011;46967;48.876;2.136;2022-11-09T02:15:00;5.53;;;1.30;;
61085;SDS011;46967;48.876;2.136;2022-11-09T02:17:28;8.13;;;1.30;;
61085;SDS011;46967;48.876;2.136;2022-11-09T02:19:55;3.47;;;1.10;;
61085;SDS011;46967;48.876;2.136;2022-11-09T02:22:22;4.30;;;1.00;;
61085;SDS011;46967;48.876;2.136;2022-11-09T02:24:47;7.13;;;1.08;;
61085;SDS011;46967;48.876;2.136;2022-11-09T02:27:13;8.40;;;1.23;;
61085;SDS011;46967;48.876;2.136;2022-11-09T02:29:39;6.63;;;1.58;;
61085;SDS011;46967;48.876;2.136;2022-11-09T02:32:12;5.50;;;1.15;;
61085;SDS011;46967;48.876;2.136;2022-11-09T02:34:41;6.07;;;1.20;;
61085;SDS011;46967;48.876;2.136;2022-11-09T02:37:06;4.97;;;1.02;;
61085;SDS011;46967;48.876;2.136;2022-11-09T02:39:32;6.82;;;1.02;;
61085;SDS011;46967;48.876;2.136;2022-11-09T02:41:59;4.78;;;1.20;;
61085;SDS011;46967;48.876;2.136;2022-11-09T02:44:29;8.40;;;1.38;;
61085;SDS011;46967;48.876;2.136;2022-11-09T02:47:01;6.68;;;1.08;;
61085;SDS011;46967;48.876;2.136;2022-11-09T02:49:27;4.72;;;1.10;;
61085;SDS011;46967;48.876;2.136;2022-11-09T02:51:52;5.70;;;0.95;;
61085;SDS011;46967;48.876;2.136;2022-11-09T02:54:17;6.28;;;1.27;;
61085;SDS011;46967;48.876;2.136;2022-11-09T02:56:43;6.05;;;0.80;;
61085;SDS011;46967;48.876;2.136;2022-11-09T02:59:08;4.82;;;0.95;;
61085;SDS011;46967;48.876;2.136;2022-11-09T03:01:34;8.90;;;1.35;;
61085;SDS011;46967;48.876;2.136;2022-11-09T03:03:59;3.90;;;1.15;;
61085;SDS011;46967;48.876;2.136;2022-11-09T03:06:24;4.95;;;1.10;;
61085;SDS011;46967;48.876;2.136;2022-11-09T03:09:08;6.10;;;1.25;;
61085;SDS011;46967;48.876;2.136;2022-11-09T03:11:35;3.28;;;0.63;;
61085;SDS011;46967;48.876;2.136;2022-11-09T03:14:01;4.68;;;0.98;;
61085;SDS011;46967;48.876;2.136;2022-11-09T03:16:27;5.65;;;1.23;;
61085;SDS011;46967;48.876;2.136;2022-11-09T03:18:52;7.57;;;1.13;;
61085;SDS011;46967;48.876;2.136;2022-11-09T03:21:18;4.15;;;1.02;;
61085;SDS011;46967;48.876;2.136;2022-11-09T03:23:43;2.90;;;1.05;;
61085;SDS011;46967;48.876;2.136;2022-11-09T03:26:09;7.07;;;1.15;;
61085;SDS011;46967;48.876;2.136;2022-11-09T03:28:34;4.10;;;1.20;;
61085;SDS011;46967;48.876;2.136;2022-11-09T03:31:00;3.22;;;0.73;;
61085;SDS011;46967;48.876;2.136;2022-11-09T03:33:25;4.68;;;1.08;;
61085;SDS011;46967;48.876;2.136;2022-11-09T03:35:50;6.18;;;1.05;;
61085;SDS011;46967;48.876;2.136;2022-11-09T03:38:16;4.32;;;0.90;;
61085;SDS011;46967;48.876;2.136;2022-11-09T03:40:42;7.70;;;1.15;;
61085;SDS011;46967;48.876;2.136;2022-11-09T03:43:07;6.75;;;0.90;;
61085;SDS011;46967;48.876;2.136;2022-11-09T03:45:33;6.60;;;0.90;;
61085;SDS011;46967;48.876;2.136;2022-11-09T03:47:58;3.15;;;1.13;;
61085;SDS011;46967;48.876;2.136;2022-11-09T03:50:28;5.85;;;0.82;;
61085;SDS011;46967;48.876;2.136;2022-11-09T03:52:55;3.20;;;0.70;;
61085;SDS011;46967;48.876;2.136;2022-11-09T03:55:21;4.78;;;0.70;;
61085;SDS011;46967;48.876;2.136;2022-11-09T03:57:47;4.30;;;0.82;;
61085;SDS011;46967;48.876;2.136;2022-11-09T04:00:13;1.80;;;0.57;;
61085;SDS011;46967;48.876;2.136;2022-11-09T04:02:40;2.40;;;0.60;;
61085;SDS011;46967;48.876;2.136;2022-11-09T04:05:05;3.15;;;1.10;;
61085;SDS011;46967;48.876;2.136;2022-11-09T04:07:31;1.58;;;0.60;;
61085;SDS011;46967;48.876;2.136;2022-11-09T04:09:57;3.63;;;0.57;;
61085;SDS011;46967;48.876;2.136;2022-11-09T04:12:22;4.57;;;0.70;;
61085;SDS011;46967;48.876;2.136;2022-11-09T04:14:47;7.10;;;1.25;;
61085;SDS011;46967;48.876;2.136;2022-11-09T04:17:13;2.47;;;0.63;;
61085;SDS011;46967;48.876;2.136;2022-11-09T04:19:38;3.20;;;0.60;;
61085;SDS011;46967;48.876;2.136;2022-11-09T04:22:03;3.60;;;0.65;;
61085;SDS011;46967;48.876;2.136;2022-11-09T04:24:29;5.38;;;0.68;;
61085;SDS011;46967;48.876;2.136;2022-11-09T04:26:54;4.90;;;0.45;;
61085;SDS011;46967;48.876;2.136;2022-11-09T04:29:20;6.88;;;0.60;;
61085;SDS011;46967;48.876;2.136;2022-11-09T04:31:47;2.88;;;0.57;;
61085;SDS011;46967;48.876;2.136;2022-11-09T04:34:13;3.67;;;0.68;;
61085;SDS011;46967;48.876;2.136;2022-11-09T04:36:38;4.50;;;0.70;;
61085;SDS011;46967;48.876;2.136;2022-11-09T04:39:03;2.95;;;0.65;;
61085;SDS011;46967;48.876;2.136;2022-11-09T04:41:29;5.72;;;1.27;;
61085;SDS011;46967;48.876;2.136;2022-11-09T04:43:54;7.25;;;0.80;;
61085;SDS011;46967;48.876;2.136;2022-11-09T04:46:19;7.68;;;0.68;;
61085;SDS011;46967;48.876;2.136;2022-11-09T04:48:45;4.10;;;0.65;;
61085;SDS011;46967;48.876;2.136;2022-11-09T04:51:10;6.22;;;1.60;;
61085;SDS011;46967;48.876;2.136;2022-11-09T04:53:36;4.25;;;0.90;;
61085;SDS011;46967;48.876;2.136;2022-11-09T04:56:02;6.50;;;1.10;;
61085;SDS011;46967;48.876;2.136;2022-11-09T04:58:28;3.97;;;1.30;;
61085;SDS011;46967;48.876;2.136;2022-11-09T05:00:54;4.28;;;0.82;;
61085;SDS011;46967;48.876;2.136;2022-11-09T05:03:25;7.88;;;1.17;;
61085;SDS011;46967;48.876;2.136;2022-11-09T05:05:50;3.03;;;0.60;;
61085;SDS011;46967;48.876;2.136;2022-11-09T05:08:16;4.38;;;0.82;;
61085;SDS011;46967;48.876;2.136;2022-11-09T05:10:41;7.75;;;1.00;;
61085;SDS011;46967;48.876;2.136;2022-11-09T05:13:07;4.65;;;1.13;;
61085;SDS011;46967;48.876;2.136;2022-11-09T05:15:35;6.18;;;1.00;;
61085;SDS011;46967;48.876;2.136;2022-11-09T05:18:01;2.53;;;0.90;;
61085;SDS011;46967;48.876;2.136;2022-11-09T05:20:27;4.20;;;0.93;;
61085;SDS011;46967;48.876;2.136;2022-11-09T05:22:53;6.53;;;1.10;;
61085;SDS011;46967;48.876;2.136;2022-11-09T05:25:37;10.93;;;1.38;;
61085;SDS011;46967;48.876;2.136;2022-11-09T05:28:03;9.43;;;1.30;;
61085;SDS011;46967;48.876;2.136;2022-11-09T05:30:29;6.68;;;0.73;;
61085;SDS011;46967;48.876;2.136;2022-11-09T05:32:54;5.53;;;1.10;;
61085;SDS011;46967;48.876;2.136;2022-11-09T05:35:19;6.03;;;1.13;;
61085;SDS011;46967;48.876;2.136;2022-11-09T05:37:46;5.93;;;1.23;;
61085;SDS011;46967;48.876;2.136;2022-11-09T05:40:12;4.25;;;0.95;;
61085;SDS011;46967;48.876;2.136;2022-11-09T05:42:38;7.32;;;1.10;;
61085;SDS011;46967;48.876;2.136;2022-11-09T05:45:07;7.50;;;0.90;;
61085;SDS011;46967;48.876;2.136;2022-11-09T05:47:37;7.85;;;1.10;;
61085;SDS011;46967;48.876;2.136;2022-11-09T05:50:08;6.18;;;0.90;;
61085;SDS011;46967;48.876;2.136;2022-11-09T05:52:36;8.00;;;1.00;;
61085;SDS011;46967;48.876;2.136;2022-11-09T05:55:02;8.38;;;1.13;;
61085;SDS011;46967;48.876;2.136;2022-11-09T05:57:28;7.72;;;1.60;;
61085;SDS011;46967;48.876;2.136;2022-11-09T05:59:53;7.63;;;1.15;;
61085;SDS011;46967;48.876;2.136;2022-11-09T06:02:19;4.43;;;1.02;;
61085;SDS011;46967;48.876;2.136;2022-11-09T06:04:44;8.85;;;0.93;;
61085;SDS011;46967;48.876;2.136;2022-11-09T06:07:09;6.50;;;0.80;;
61085;SDS011;46967;48.876;2.136;2022-11-09T06:09:35;5.00;;;0.98;;
61085;SDS011;46967;48.876;2.136;2022-11-09T06:12:00;6.93;;;1.25;;
61085;SDS011;46967;48.876;2.136;2022-11-09T06:14:25;4.00;;;0.82;;
61085;SDS011;46967;48.876;2.136;2022-11-09T06:16:51;5.68;;;1.20;;
61085;SDS011;46967;48.876;2.136;2022-11-09T06:19:16;7.22;;;1.20;;
61085;SDS011;46967;48.876;2.136;2022-11-09T06:21:42;9.20;;;1.70;;
61085;SDS011;46967;48.876;2.136;2022-11-09T06:24:08;9.80;;;1.80;;
61085;SDS011;46967;48.876;2.136;2022-11-09T06:26:33;6.18;;;1.35;;
61085;SDS011;46967;48.876;2.136;2022-11-09T06:28:59;6.00;;;1.08;;
61085;SDS011;46967;48.876;2.136;2022-11-09T06:31:24;5.40;;;1.27;;
61085;SDS011;46967;48.876;2.136;2022-11-09T06:33:50;5.82;;;1.27;;
61085;SDS011;46967;48.876;2.136;2022-11-09T06:36:16;5.18;;;0.98;;
61085;SDS011;46967;48.876;2.136;2022-11-09T06:38:41;4.10;;;1.25;;
61085;SDS011;46967;48.876;2.136;2022-11-09T06:41:07;7.78;;;1.13;;
61085;SDS011;46967;48.876;2.136;2022-11-09T06:43:33;11.23;;;1.63;;
61085;SDS011;46967;48.876;2.136;2022-11-09T06:46:01;7.68;;;1.60;;
61085;SDS011;46967;48.876;2.136;2022-11-09T06:48:27;6.32;;;1.17;;
61085;SDS011;46967;48.876;2.136;2022-11-09T06:50:53;16.48;;;3.25;;
61085;SDS011;46967;48.876;2.136;2022-11-09T06:53:18;8.85;;;2.20;;
61085;SDS011;46967;48.876;2.136;2022-11-09T06:55:44;13.05;;;2.70;;
61085;SDS011;46967;48.876;2.136;2022-11-09T06:58:10;12.00;;;1.90;;
61085;SDS011;46967;48.876;2.136;2022-11-09T07:00:39;10.88;;;2.08;;
61085;SDS011;46967;48.876;2.136;2022-11-09T07:03:05;11.05;;;2.15;;
61085;SDS011;46967;48.876;2.136;2022-11-09T07:05:31;4.65;;;1.05;;
61085;SDS011;46967;48.876;2.136;2022-11-09T07:07:56;4.70;;;1.45;;
61085;SDS011;46967;48.876;2.136;2022-11-09T07:10:22;14.57;;;1.65;;
61085;SDS011;46967;48.876;2.136;2022-11-09T07:12:48;13.85;;;1.88;;
61085;SDS011;46967;48.876;2.136;2022-11-09T07:15:13;3.80;;;0.90;;
61085;SDS011;46967;48.876;2.136;2022-11-09T07:17:39;12.15;;;2.03;;
61085;SDS011;46967;48.876;2.136;2022-11-09T07:20:06;11.88;;;1.60;;
61085;SDS011;46967;48.876;2.136;2022-11-09T07:22:32;9.95;;;2.45;;
61085;SDS011;46967;48.876;2.136;2022-11-09T07:25:03;11.68;;;1.65;;
61085;SDS011;46967;48.876;2.136;2022-11-09T07:27:30;13.60;;;1.98;;
61085;SDS011;46967;48.876;2.136;2022-11-09T07:29:55;9.02;;;1.70;;
61085;SDS011;46967;48.876;2.136;2022-11-09T07:32:20;7.75;;;2.20;;
61085;SDS011;46967;48.876;2.136;2022-11-09T07:34:45;11.00;;;1.80;;
61085;SDS011;46967;48.876;2.136;2022-11-09T07:37:11;13.65;;;2.15;;
61085;SDS011;46967;48.876;2.136;2022-11-09T07:39:37;9.95;;;2.08;;
61085;SDS011;46967;48.876;2.136;2022-11-09T07:42:02;11.52;;;1.88;;
61085;SDS011;46967;48.876;2.136;2022-11-09T07:44:27;10.82;;;2.33;;
61085;SDS011;46967;48.876;2.136;2022-11-09T07:46:53;8.98;;;2.10;;
61085;SDS011;46967;48.876;2.136;2022-11-09T07:49:18;8.55;;;1.90;;
61085;SDS011;46967;48.876;2.136;2022-11-09T07:51:44;9.95;;;2.53;;
61085;SDS011;46967;48.876;2.136;2022-11-09T07:54:09;11.82;;;2.05;;
61085;SDS011;46967;48.876;2.136;2022-11-09T07:56:35;10.43;;;1.83;;
61085;SDS011;46967;48.876;2.136;2022-11-09T07:59:01;8.90;;;1.75;;
61085;SDS011;46967;48.876;2.136;2022-11-09T08:01:27;11.35;;;1.45;;
61085;SDS011;46967;48.876;2.136;2022-11-09T08:03:52;10.35;;;1.60;;
61085;SDS011;46967;48.876;2.136;2022-11-09T08:06:18;9.15;;;1.58;;
61085;SDS011;46967;48.876;2.136;2022-11-09T08:08:44;14.02;;;1.77;;
61085;SDS011;46967;48.876;2.136;2022-11-09T08:11:10;9.23;;;1.67;;
61085;SDS011;46967;48.876;2.136;2022-11-09T08:13:35;13.10;;;1.60;;
61085;SDS011;46967;48.876;2.136;2022-11-09T08:16:00;9.23;;;2.00;;
61085;SDS011;46967;48.876;2.136;2022-11-09T08:18:27;9.55;;;1.60;;
61085;SDS011;46967;48.876;2.136;2022-11-09T08:20:53;9.45;;;1.48;;
61085;SDS011;46967;48.876;2.136;2022-11-09T08:23:19;12.57;;;1.63;;
61085;SDS011;46967;48.876;2.136;2022-11-09T08:25:46;9.55;;;1.92;;
61085;SDS011;46967;48.876;2.136;2022-11-09T08:28:12;5.28;;;1.40;;
61085;SDS011;46967;48.876;2.136;2022-11-09T08:30:40;9.80;;;1.58;;
61085;SDS011;46967;48.876;2.136;2022-11-09T08:33:06;11.60;;;2.10;;
61085;SDS011;46967;48.876;2.136;2022-11-09T08:35:33;11.68;;;1.27;;
61085;SDS011;46967;48.876;2.136;2022-11-09T08:37:59;10.45;;;1.77;;
61085;SDS011;46967;48.876;2.136;2022-11-09T08:40:26;8.73;;;1.63;;
61085;SDS011;46967;48.876;2.136;2022-11-09T08:42:52;13.13;;;2.90;;
61085;SDS011;46967;48.876;2.136;2022-11-09T08:45:17;6.32;;;1.45;;
61085;SDS011;46967;48.876;2.136;2022-11-09T08:47:43;9.65;;;2.38;;
61085;SDS011;46967;48.876;2.136;2022-11-09T08:50:10;8.30;;;1.45;;
61085;SDS011;46967;48.876;2.136;2022-11-09T08:52:37;9.70;;;1.75;;
61085;SDS011;46967;48.876;2.136;2022-11-09T08:55:02;11.50;;;2.10;;
61085;SDS011;46967;48.876;2.136;2022-11-09T08:57:28;12.98;;;1.65;;
61085;SDS011;46967;48.876;2.136;2022-11-09T08:59:54;9.43;;;1.67;;
61085;SDS011;46967;48.876;2.136;2022-11-09T09:02:20;12.48;;;2.40;;
61085;SDS011;46967;48.876;2.136;2022-11-09T09:04:45;10.95;;;1.83;;
61085;SDS011;46967;48.876;2.136;2022-11-09T09:07:11;7.00;;;1.40;;
61085;SDS011;46967;48.876;2.136;2022-11-09T09:09:37;8.55;;;1.50;;
61085;SDS011;46967;48.876;2.136;2022-11-09T09:12:03;13.10;;;1.48;;
61085;SDS011;46967;48.876;2.136;2022-11-09T09:14:29;13.68;;;2.83;;
61085;SDS011;46967;48.876;2.136;2022-11-09T09:16:54;6.95;;;1.65;;
61085;SDS011;46967;48.876;2.136;2022-11-09T09:19:20;11.90;;;2.22;;
61085;SDS011;46967;48.876;2.136;2022-11-09T09:21:45;9.82;;;1.33;;
61085;SDS011;46967;48.876;2.136;2022-11-09T09:24:11;10.55;;;1.50;;
61085;SDS011;46967;48.876;2.136;2022-11-09T09:26:36;10.45;;;1.35;;
61085;SDS011;46967;48.876;2.136;2022-11-09T09:29:02;12.10;;;1.70;;
61085;SDS011;46967;48.876;2.136;2022-11-09T09:31:27;8.25;;;1.23;;
61085;SDS011;46967;48.876;2.136;2022-11-09T09:33:52;4.22;;;1.27;;
61085;SDS011;46967;48.876;2.136;2022-11-09T09:36:19;8.63;;;1.60;;
61085;SDS011;46967;48.876;2.136;2022-11-09T09:38:46;13.95;;;1.58;;
61085;SDS011;46967;48.876;2.136;2022-11-09T09:41:21;11.57;;;1.67;;
61085;SDS011;46967;48.876;2.136;2022-11-09T09:43:54;8.77;;;1.52;;
61085;SDS011;46967;48.876;2.136;2022-11-09T09:46:29;11.10;;;1.45;;
61085;SDS011;46967;48.876;2.136;2022-11-09T09:51:44;10.38;;;1.70;;
61085;SDS011;46967;48.876;2.136;2022-11-09T09:54:25;8.55;;;1.33;;
61085;SDS011;46967;48.876;2.136;2022-11-09T09:56:56;11.88;;;1.90;;
61085;SDS011;46967;48.876;2.136;2022-11-09T10:02:05;6.97;;;1.25;;
61085;SDS011;46967;48.876;2.136;2022-11-09T10:04:41;11.00;;;1.60;;
61085;SDS011;46967;48.876;2.136;2022-11-09T10:07:16;9.65;;;2.13;;
61085;SDS011;46967;48.876;2.136;2022-11-09T10:09:52;9.38;;;1.60;;
61085;SDS011;46967;48.876;2.136;2022-11-09T10:12:57;11.82;;;1.83;;
61085;SDS011;46967;48.876;2.136;2022-11-09T10:24:39;8.20;;;1.60;;
61085;SDS011;46967;48.876;2.136;2022-11-09T10:30:00;10.25;;;1.33;;
61085;SDS011;46967;48.876;2.136;2022-11-09T10:32:30;8.00;;;1.15;;
61085;SDS011;46967;48.876;2.136;2022-11-09T10:35:13;9.23;;;1.67;;
61085;SDS011;46967;48.876;2.136;2022-11-09T10:37:48;6.68;;;1.33;;
61085;SDS011;46967;48.876;2.136;2022-11-09T10:43:10;13.75;;;1.88;;
61085;SDS011;46967;48.876;2.136;2022-11-09T10:45:38;11.98;;;1.20;;
61085;SDS011;46967;48.876;2.136;2022-11-09T10:48:07;8.20;;;1.70;;
61085;SDS011;46967;48.876;2.136;2022-11-09T10:50:39;7.28;;;1.15;;
61085;SDS011;46967;48.876;2.136;2022-11-09T10:53:15;9.60;;;1.33;;
61085;SDS011;46967;48.876;2.136;2022-11-09T10:58:38;8.52;;;1.50;;
61085;SDS011;46967;48.876;2.136;2022-11-09T11:03:43;9.05;;;1.60;;
61085;SDS011;46967;48.876;2.136;2022-11-09T11:11:23;11.73;;;2.25;;
61085;SDS011;46967;48.876;2.136;2022-11-09T11:13:49;9.23;;;1.17;;
61085;SDS011;46967;48.876;2.136;2022-11-09T11:16:35;8.20;;;1.55;;
61085;SDS011;46967;48.876;2.136;2022-11-09T11:19:02;8.85;;;1.42;;
61085;SDS011;46967;48.876;2.136;2022-11-09T11:21:28;13.27;;;2.42;;
61085;SDS011;46967;48.876;2.136;2022-11-09T11:29:36;13.30;;;1.40;;
61085;SDS011;46967;48.876;2.136;2022-11-09T11:32:11;13.35;;;2.05;;
61085;SDS011;46967;48.876;2.136;2022-11-09T11:34:40;11.38;;;2.08;;
61085;SDS011;46967;48.876;2.136;2022-11-09T11:37:26;8.88;;;2.28;;
61085;SDS011;46967;48.876;2.136;2022-11-09T11:45:40;5.43;;;1.02;;
61085;SDS011;46967;48.876;2.136;2022-11-09T12:07:02;5.82;;;1.77;;
61085;SDS011;46967;48.876;2.136;2022-11-09T12:16:01;9.57;;;1.20;;
61085;SDS011;46967;48.876;2.136;2022-11-09T12:21:32;7.45;;;1.27;;
61085;SDS011;46967;48.876;2.136;2022-11-09T12:26:43;13.65;;;1.52;;
61085;SDS011;46967;48.876;2.136;2022-11-09T12:29:27;9.57;;;1.45;;
61085;SDS011;46967;48.876;2.136;2022-11-09T12:37:33;7.50;;;2.30;;
61085;SDS011;46967;48.876;2.136;2022-11-09T12:40:05;12.02;;;1.40;;
61085;SDS011;46967;48.876;2.136;2022-11-09T12:42:46;6.65;;;1.40;;
61085;SDS011;46967;48.876;2.136;2022-11-09T12:47:59;7.13;;;1.77;;
61085;SDS011;46967;48.876;2.136;2022-11-09T12:50:29;8.10;;;1.33;;
61085;SDS011;46967;48.876;2.136;2022-11-09T12:52:56;4.97;;;1.02;;
61085;SDS011;46967;48.876;2.136;2022-11-09T12:57:55;7.50;;;1.38;;
61085;SDS011;46967;48.876;2.136;2022-11-09T13:03:02;9.15;;;1.27;;
61085;SDS011;46967;48.876;2.136;2022-11-09T13:05:30;7.97;;;1.02;;
61085;SDS011;46967;48.876;2.136;2022-11-09T13:07:58;5.35;;;1.35;;
61085;SDS011;46967;48.876;2.136;2022-11-09T13:13:02;7.90;;;1.13;;
61085;SDS011;46967;48.876;2.136;2022-11-09T13:20:55;8.65;;;0.80;;
61085;SDS011;46967;48.876;2.136;2022-11-09T13:25:50;6.72;;;0.90;;
61085;SDS011;46967;48.876;2.136;2022-11-09T13:30:54;4.85;;;0.80;;
61085;SDS011;46967;48.876;2.136;2022-11-09T13:38:19;5.40;;;1.50;;
61085;SDS011;46967;48.876;2.136;2022-11-09T13:40:45;5.78;;;1.10;;
61085;SDS011;46967;48.876;2.136;2022-11-09T13:45:41;6.93;;;1.00;;
61085;SDS011;46967;48.876;2.136;2022-11-09T13:51:09;4.60;;;0.93;;
61085;SDS011;46967;48.876;2.136;2022-11-09T13:56:18;5.57;;;0.88;;
61085;SDS011;46967;48.876;2.136;2022-11-09T13:58:49;7.63;;;0.90;;
61085;SDS011;46967;48.876;2.136;2022-11-09T14:03:52;4.50;;;0.80;;
61085;SDS011;46967;48.876;2.136;2022-11-09T14:06:18;6.65;;;1.00;;
61085;SDS011;46967;48.876;2.136;2022-11-09T14:08:43;4.93;;;0.85;;
61085;SDS011;46967;48.876;2.136;2022-11-09T14:14:09;4.38;;;0.60;;
61085;SDS011;46967;48.876;2.136;2022-11-09T14:22:21;5.38;;;1.10;;
61085;SDS011;46967;48.876;2.136;2022-11-09T14:24:47;4.28;;;0.80;;
61085;SDS011;46967;48.876;2.136;2022-11-09T14:27:14;7.30;;;0.90;;
61085;SDS011;46967;48.876;2.136;2022-11-09T14:29:46;4.53;;;0.75;;
61085;SDS011;46967;48.876;2.136;2022-11-09T14:32:33;3.78;;;0.95;;
61085;SDS011;46967;48.876;2.136;2022-11-09T14:37:45;5.70;;;1.20;;
61085;SDS011;46967;48.876;2.136;2022-11-09T14:40:15;6.28;;;1.35;;
61085;SDS011;46967;48.876;2.136;2022-11-09T14:42:41;5.20;;;0.90;;
61085;SDS011;46967;48.876;2.136;2022-11-09T14:45:17;8.70;;;1.05;;
61085;SDS011;46967;48.876;2.136;2022-11-09T14:47:43;6.00;;;1.10;;
61085;SDS011;46967;48.876;2.136;2022-11-09T14:50:16;5.05;;;0.82;;
61085;SDS011;46967;48.876;2.136;2022-11-09T14:52:53;4.80;;;1.00;;
61085;SDS011;46967;48.876;2.136;2022-11-09T14:55:20;5.97;;;0.80;;
61085;SDS011;46967;48.876;2.136;2022-11-09T14:57:48;5.32;;;0.93;;
61085;SDS011;46967;48.876;2.136;2022-11-09T15:00:24;3.38;;;1.10;;
61085;SDS011;46967;48.876;2.136;2022-11-09T15:02:52;5.25;;;0.75;;
61085;SDS011;46967;48.876;2.136;2022-11-09T15:08:04;6.53;;;1.05;;
61085;SDS011;46967;48.876;2.136;2022-11-09T15:10:38;9.98;;;1.60;;
61085;SDS011;46967;48.876;2.136;2022-11-09T15:13:03;4.90;;;0.77;;
61085;SDS011;46967;48.876;2.136;2022-11-09T15:15:29;8.35;;;0.85;;
61085;SDS011;46967;48.876;2.136;2022-11-09T15:17:56;4.55;;;0.80;;
61085;SDS011;46967;48.876;2.136;2022-11-09T15:20:27;6.05;;;0.90;;
61085;SDS011;46967;48.876;2.136;2022-11-09T15:22:56;15.20;;;1.17;;
61085;SDS011;46967;48.876;2.136;2022-11-09T15:25:31;3.10;;;0.70;;
61085;SDS011;46967;48.876;2.136;2022-11-09T15:28:01;4.18;;;0.60;;
61085;SDS011;46967;48.876;2.136;2022-11-09T15:30:27;6.07;;;0.70;;
61085;SDS011;46967;48.876;2.136;2022-11-09T15:33:10;4.15;;;0.77;;
61085;SDS011;46967;48.876;2.136;2022-11-09T15:35:57;6.38;;;0.85;;
61085;SDS011;46967;48.876;2.136;2022-11-09T15:38:28;6.07;;;0.85;;
61085;SDS011;46967;48.876;2.136;2022-11-09T15:40:56;6.13;;;0.85;;
61085;SDS011;46967;48.876;2.136;2022-11-09T15:43:21;3.15;;;0.57;;
61085;SDS011;46967;48.876;2.136;2022-11-09T15:45:47;4.22;;;0.82;;
61085;SDS011;46967;48.876;2.136;2022-11-09T15:48:12;5.28;;;0.85;;
61085;SDS011;46967;48.876;2.136;2022-11-09T15:50:38;2.38;;;0.77;;
61085;SDS011;46967;48.876;2.136;2022-11-09T15:53:04;6.00;;;1.00;;
61085;SDS011;46967;48.876;2.136;2022-11-09T15:55:29;4.53;;;0.80;;
61085;SDS011;46967;48.876;2.136;2022-11-09T15:57:54;4.30;;;0.65;;
61085;SDS011;46967;48.876;2.136;2022-11-09T16:00:21;7.07;;;0.82;;
61085;SDS011;46967;48.876;2.136;2022-11-09T16:02:47;5.18;;;0.73;;
61085;SDS011;46967;48.876;2.136;2022-11-09T16:05:12;4.07;;;0.95;;
61085;SDS011;46967;48.876;2.136;2022-11-09T16:07:51;4.20;;;0.65;;
61085;SDS011;46967;48.876;2.136;2022-11-09T16:10:18;3.95;;;0.93;;
61085;SDS011;46967;48.876;2.136;2022-11-09T16:12:47;6.87;;;1.00;;
61085;SDS011;46967;48.876;2.136;2022-11-09T16:15:12;3.38;;;0.82;;
61085;SDS011;46967;48.876;2.136;2022-11-09T16:17:38;9.13;;;1.05;;
61085;SDS011;46967;48.876;2.136;2022-11-09T16:20:03;7.95;;;1.20;;
61085;SDS011;46967;48.876;2.136;2022-11-09T16:22:30;5.68;;;1.67;;
61085;SDS011;46967;48.876;2.136;2022-11-09T16:24:59;4.28;;;0.82;;
61085;SDS011;46967;48.876;2.136;2022-11-09T16:27:24;6.50;;;1.17;;
61085;SDS011;46967;48.876;2.136;2022-11-09T16:29:49;4.45;;;0.95;;
61085;SDS011;46967;48.876;2.136;2022-11-09T16:32:15;4.75;;;1.20;;
61085;SDS011;46967;48.876;2.136;2022-11-09T16:34:40;2.30;;;0.75;;
61085;SDS011;46967;48.876;2.136;2022-11-09T16:37:05;5.95;;;0.90;;
61085;SDS011;46967;48.876;2.136;2022-11-09T16:39:31;2.28;;;0.68;;
61085;SDS011;46967;48.876;2.136;2022-11-09T16:41:58;2.85;;;0.90;;
61085;SDS011;46967;48.876;2.136;2022-11-09T16:44:29;7.22;;;0.90;;
61085;SDS011;46967;48.876;2.136;2022-11-09T16:46:57;6.13;;;0.80;;
61085;SDS011;46967;48.876;2.136;2022-11-09T16:49:25;6.03;;;1.00;;
61085;SDS011;46967;48.876;2.136;2022-11-09T16:51:51;5.68;;;1.05;;
61085;SDS011;46967;48.876;2.136;2022-11-09T16:54:16;3.97;;;0.65;;
61085;SDS011;46967;48.876;2.136;2022-11-09T16:56:42;4.18;;;0.70;;
61085;SDS011;46967;48.876;2.136;2022-11-09T16:59:07;6.10;;;1.10;;